Mensajes de N7QME - ver mapa · información · telemetría · el tiempo · sin filtrar · estado · balizas · mensajes · boletines · explorador · moviendo · mi cuenta
Indicativo:
Mostrar:

Cargando message paquetes...

Los mensajes APRS se almacenan 14 dias. Es posible realizar la búsqueda utilizando comodines (*?) tras el prefijo.

2019-06-24 15:02:39 EDT: MTHOOD>N7QME: temps 56.0 95.6 50.5
2019-06-24 15:12:27 EDT: N7QME-2>N7QME: temps 65.0 66.0 63.9 96.1 70.1 60.5 72.5 64.1
2019-06-24 15:19:29 EDT: MTHOOD>N7QME: hum 54 10 71
2019-06-24 15:32:07 EDT: N7QME-2>N7QME: hum 67 66 72 19 50 71 55 55
2019-06-24 15:49:43 EDT: N7QME-2>N7QME: dew 52.8 53.9 54.0 66.6 52.4 49.7 56.4 53.2
2019-06-24 15:52:44 EDT: MTHOOD>N7QME: temps 56.0 95.7 51.9
2019-06-24 16:07:47 EDT: N7QME-2>N7QME: temps 65.4 66.1 64.9 95.6 70.3 60.0 72.4 71.3
2019-06-24 16:12:02 EDT: MTHOOD>N7QME: hum 54 11 65
2019-06-24 16:26:07 EDT: N7QME-2>N7QME: hum 64 65 70 20 50 72 55 47
2019-06-24 16:44:22 EDT: N7QME-2>N7QME: dew 52.9 53.2 54.7 64.2 51.9 49.9 55.7 49.5
2019-06-24 16:47:39 EDT: MTHOOD>N7QME: temps 56.1 96.0 53.7
2019-06-24 17:01:02 EDT: N7QME-2>N7QME: temps 66.0 65.8 66.1 91.7 69.3 60.0 71.7 66.8
2019-06-24 17:04:04 EDT: MTHOOD>N7QME: hum 54 12 62
2019-06-24 17:18:32 EDT: N7QME-2>N7QME: hum 62 63 64 23 51 72 55 53
2019-06-24 17:35:02 EDT: N7QME-2>N7QME: dew 51.9 52.4 53.7 61.5 51.0 49.6 54.9 48.5
2019-06-24 17:42:49 EDT: MTHOOD>N7QME: temps 56.3 96.1 55.4
2019-06-24 17:51:17 EDT: N7QME-2>N7QME: temps 65.9 65.8 67.4 88.3 69.1 60.1 72.3 71.6
2019-06-24 17:59:14 EDT: MTHOOD>N7QME: hum 54 10 59
2019-06-24 18:08:27 EDT: N7QME-2>N7QME: hum 62 64 62 24 51 72 56 37
2019-06-24 18:27:37 EDT: N7QME-2>N7QME: dew 53.1 52.7 53.3 60.2 53.4 51.2 57.4 64.8
2019-06-24 18:34:09 EDT: MTHOOD>N7QME: temps 56.4 96.1 57.2
2019-06-24 18:47:02 EDT: N7QME-2>N7QME: temps 67.5 65.8 67.9 86.3 71.8 62.3 73.4 88.1
2019-06-24 18:50:54 EDT: MTHOOD>N7QME: hum 54 15 54
2019-06-24 19:05:22 EDT: N7QME-2>N7QME: hum 61 63 58 25 50 70 55 28
2019-06-24 19:23:12 EDT: N7QME-2>N7QME: dew 52.4 51.9 52.7 57.8 53.2 51.7 56.6 56.5
2019-06-24 19:24:49 EDT: MTHOOD>N7QME: temps 56.5 96.1 58.3
2019-06-24 19:39:22 EDT: N7QME-2>N7QME: temps 67.8 65.9 68.4 84.3 71.4 62.9 72.5 78.5
2019-06-24 19:41:43 EDT: MTHOOD>N7QME: hum 54 12 56
2019-06-24 19:59:12 EDT: N7QME-2>N7QME: hum 57 60 56 26 49 68 55 37
2019-06-24 20:16:12 EDT: N7QME-2>N7QME: dew 52.5 51.4 52.4 56.5 52.5 51.4 54.9 50.7
2019-06-24 20:18:04 EDT: MTHOOD>N7QME: temps 56.6 96.0 58.1
2019-06-24 20:34:34 EDT: MTHOOD>N7QME: hum 54 13 57
2019-06-24 20:34:57 EDT: N7QME-2>N7QME: temps 68.0 65.7 67.7 82.5 70.0 62.4 71.2 69.6
2019-06-24 20:51:32 EDT: N7QME-2>N7QME: hum 58 61 57 28 51 69 54 47
2019-06-24 21:10:39 EDT: MTHOOD>N7QME: temps 56.8 96.0 57.3
2019-06-24 21:10:52 EDT: N7QME-2>N7QME: dew 55.1 51.6 51.3 55.1 51.4 50.8 53.6 48.1
2019-06-24 21:28:19 EDT: MTHOOD>N7QME: hum 54 12 59
2019-06-24 21:28:52 EDT: N7QME-2>N7QME: temps 69.5 65.5 66.7 80.3 68.6 61.8 69.8 65.6
2019-06-24 21:47:52 EDT: N7QME-2>N7QME: hum 57 61 57 31 52 69 55 53
2019-06-24 22:04:17 EDT: N7QME-2>N7QME: dew 52.8 51.2 53.7 54.1 50.7 50.3 52.9 47.8
2019-06-24 22:06:29 EDT: MTHOOD>N7QME: temps 56.9 95.9 56.6
2019-06-24 22:20:32 EDT: N7QME-2>N7QME: temps 68.0 65.0 67.4 78.9 67.8 61.4 68.8 63.6
2019-06-24 22:23:04 EDT: MTHOOD>N7QME: hum 54 10 61
2019-06-24 22:37:37 EDT: N7QME-2>N7QME: hum 57 61 57 32 52 69 55 60
2019-06-24 22:54:37 EDT: N7QME-2>N7QME: dew 52.2 51.2 52.7 53.6 52.9 51.6 54.6 67.9
2019-06-24 22:59:39 EDT: MTHOOD>N7QME: temps 57.0 96.7 56.1
2019-06-24 23:12:10 EDT: N7QME-2>N7QME: temps 67.5 64.8 66.1 78.1 72.1 64.4 71.9 103.1
2019-06-24 23:18:19 EDT: MTHOOD>N7QME: hum 54 10 63
2019-06-24 23:31:22 EDT: N7QME-2>N7QME: hum 57 62 58 32 50 67 54 15
2019-06-24 23:57:24 EDT: MTHOOD>N7QME: temps 57.1 96.3 55.4
< anterior
FAQ · Blog · Grupo de discusión · Conectando con aprs.fi · Emplazamientos AIS · Estado del servicio · Estadisticas de la base de datos · Publicidad en aprs.fi · Detalles técnicos · API · Cambiar log · Cambios previstos · Créditos y agradecimientos · Condiciones del Servicio · iPhone/iPad APRS